Historyczne dane pomiarowe

Dodano dane terminowe – wersja testowa.

Dane z okresu 1951-2019

Wersja bazy: 1.34 [2019-03-16, lista zmian], aktualizacja planowana na 2019-04-15

Dane meteo z obszaru Polski uzyskane na podstawie danych udostępnionych przez Instytut Meteorologii i Gospodarki Wodnej – Państwowy Instytut Badawczy.

 

Wybierz Datę:    

       

TemperaturaWilgotnośćWiatrCiśnienieOpadyŚniegCzas trwania zjawisk
 Stacja t tx tn tng RH VA  wxwx mslp ppp RRR   cm mm wxwxwxwxwxwxwx
1983-08-13 14.5 20.0 12.0 11.0 88.8- 7.0 2.3---- 3.1------------
1983-08-14 13.4 17.4 10.8 10.2 85.3- 5.3 3.0---- 0.0------------
1983-08-15 14.1 20.4 8.0 6.0 82.3- 2.0 1.3---- 0.0------------
1983-08-16 16.4 24.0 10.0 9.0 83.5- 0.0 2.3---- 0.0------------
1983-08-17 19.6 26.0 12.6 9.0 71.8- 3.7 1.7---- 0.0------------
1983-08-18 18.1 25.0 12.0 11.0 87.3- 6.0 1.7---- 0.0------------
1983-08-19 16.9 24.0 10.0 8.6 94.0- 5.0 1.0---- 0.0------------
1983-08-20 16.0 24.0 9.4 10.0 91.8- 3.0 1.0---- 0.0------------
1983-08-21 16.2 25.0 9.0 9.6 92.3- 2.7 1.3---- 0.0------------
1983-08-22 16.8 25.4 8.6 9.0 86.8- 3.0 1.0---- 0.0------------
1983-08-23 16.5 25.2 10.6 8.5 93.0- 4.0 1.3---- 0.0------------
1983-08-24 17.5 27.0 11.0 12.0 88.8- 8.0 1.0---- 0.0------------
1983-08-25 17.6 25.2 13.5 11.5 89.3- 4.3 1.0---- 0.0------------
1983-08-26 15.8 22.6 11.0 9.0 88.5- 3.0 1.0---- 0.0------------
1983-08-27 14.1 23.0 5.5 3.0 82.3- 1.3 1.3---- 0.0------------
1983-08-28 16.2 25.2 7.0 5.5 86.5- 0.7 2.3---- 0.0------------
1983-08-29 15.9 22.4 9.4 9.8 82.5- 4.7 1.3---- 0.0------------
1983-08-30 15.2 21.4 6.5 5.0 79.3- 0.0 2.0---- 0.0------------
1983-08-31 16.4 27.0 5.5 4.0 91.5- 1.7 1.0---- 0.0------------
1983-09-01 17.0 28.0 9.0 8.0 86.5- 2.7 1.0---- 0.0------------
1983-09-02 16.8 28.0 9.6 9.0 84.8- 4.0 1.3---- 0.0------------
1983-09-03 16.0 26.6 5.4 3.5 70.0- 4.0 1.3---- 2.6------------
1983-09-04 12.5 18.0 8.0 6.0 96.8- 8.0 1.7---- 7.6------------
1983-09-05 15.4 21.6 10.0 9.5 90.5- 8.0 1.7---- 0.0------------
1983-09-06 14.7 19.0 11.6 8.5 88.0- 4.7 2.7---- 0.0------------
1983-09-07 9.5 13.4 7.2 6.6 86.0- 5.3 1.7---- 1.4------------
1983-09-08 10.5 15.8 6.5 4.0 77.8- 5.0 4.7---- 0.0------------
1983-09-09 13.4 20.0 4.3 6.0 72.8- 5.3 5.0---- 0.0------------
1983-09-10 19.8 25.4 15.0 11.0 61.5- 2.3 5.7---- 0.0------------
1983-09-11 24.0 27.5 18.5 15.0 66.8- 2.3 4.7---- 0.0------------
140.6 ms

 

Źródłem pochodzenia danych jest Instytut Meteorologii i Gospodarki Wodnej – Państwowy Instytut Badawczy. Dane Instytutu Meteorologii i Gospodarki Wodnej – Państwowego Instytutu Badawczego zostały przetworzone.

Dane źródłowe można odnaleźć na stronie https://dane.imgw.pl